createdAt,value
2018-12-20T06:39:15.214Z,24.90
2018-12-20T06:41:44.102Z,24.02
2018-12-20T06:44:16.046Z,23.02
2018-12-20T06:47:02.202Z,24.55
2018-12-20T06:49:35.310Z,24.75
2018-12-20T06:52:04.195Z,26.15
2018-12-20T06:54:33.038Z,26.20
2018-12-20T06:57:11.426Z,24.10
2018-12-20T06:59:41.122Z,23.83
2018-12-20T07:02:09.919Z,24.60
2018-12-20T07:04:38.717Z,24.82
2018-12-20T07:07:08.511Z,25.55
2018-12-20T07:09:38.330Z,26.02
2018-12-20T07:12:09.087Z,25.72
2018-12-20T07:14:37.926Z,26.35
2018-12-20T07:17:10.330Z,24.07
2018-12-20T07:19:41.031Z,22.95
2018-12-20T07:22:11.819Z,24.02
2018-12-20T07:24:43.639Z,24.02
2018-12-20T07:27:12.438Z,24.70
2018-12-20T07:30:07.763Z,26.77
2018-12-20T07:32:42.471Z,26.57
2018-12-20T07:35:12.187Z,26.10
2018-12-20T07:38:06.223Z,27.70
2018-12-20T07:40:35.059Z,27.95
2018-12-20T07:43:11.342Z,25.97
2018-12-20T07:45:47.123Z,26.20
2018-12-20T07:48:20.199Z,26.97
2018-12-20T07:50:48.983Z,29.90
2018-12-20T07:53:26.254Z,27.10
2018-12-20T07:56:00.447Z,30.10
2018-12-20T07:58:33.335Z,30.85
2018-12-20T08:01:04.227Z,28.90
2018-12-20T08:03:36.747Z,29.92
2018-12-20T08:06:07.619Z,29.60
2018-12-20T08:08:37.372Z,30.90
2018-12-20T08:11:11.667Z,28.60
2018-12-20T08:13:41.393Z,28.95
2018-12-20T08:16:16.127Z,29.67
2018-12-20T08:18:50.735Z,31.40
2018-12-20T08:21:26.147Z,32.28
2018-12-20T08:23:58.247Z,32.10
2018-12-20T08:26:28.131Z,31.93
2018-12-20T08:29:07.679Z,33.20
2018-12-20T08:31:37.447Z,32.33
2018-12-20T08:34:08.211Z,32.35
2018-12-20T08:36:40.992Z,31.07
2018-12-20T08:39:13.639Z,32.55
2018-12-20T08:41:56.772Z,31.05
2018-12-20T08:44:39.375Z,32.10
2018-12-20T08:47:20.538Z,32.17
2018-12-20T08:49:59.137Z,32.53
2018-12-20T08:52:47.151Z,32.48
2018-12-20T08:55:28.447Z,33.63
2018-12-20T08:57:57.247Z,33.48
2018-12-20T09:00:31.979Z,30.50
2018-12-20T09:03:07.711Z,30.52
2018-12-20T09:05:51.087Z,30.60
2018-12-20T09:08:19.971Z,32.33
2018-12-20T09:10:55.657Z,33.60
2018-12-20T09:13:41.815Z,33.13
2018-12-20T09:16:10.642Z,30.27
2018-12-20T09:18:39.476Z,29.63
2018-12-20T09:21:08.311Z,31.10
2018-12-20T09:23:37.099Z,29.77
2018-12-20T09:26:05.930Z,26.95
2018-12-20T09:28:41.563Z,25.65
2018-12-20T09:31:10.364Z,26.73
2018-12-20T09:33:45.042Z,23.83
2018-12-20T09:36:14.799Z,24.90
2018-12-20T09:38:57.076Z,22.80
2018-12-20T09:41:25.925Z,23.77
2018-12-20T09:44:26.816Z,24.07
2018-12-20T09:47:11.645Z,23.32
2018-12-20T09:49:41.922Z,21.85
2018-12-20T09:52:11.680Z,21.20
2018-12-20T09:54:53.064Z,23.20
2018-12-20T09:57:34.748Z,22.45
2018-12-20T10:00:09.743Z,21.68
2018-12-20T10:02:48.312Z,20.50
2018-12-20T10:05:19.041Z,21.42
2018-12-20T10:07:47.864Z,22.07
2018-12-20T10:10:33.168Z,22.25
2018-12-20T10:13:02.036Z,19.42
2018-12-20T10:15:31.764Z,20.00
2018-12-20T10:18:01.584Z,19.80
2018-12-20T10:20:40.495Z,19.10
2018-12-20T10:23:11.198Z,19.48
2018-12-20T10:25:44.270Z,17.17
2018-12-20T10:28:18.896Z,17.70
2018-12-20T10:30:52.568Z,18.15
2018-12-20T10:33:25.304Z,17.02
2018-12-20T10:36:08.808Z,16.87
2018-12-20T10:38:45.608Z,16.73
2018-12-20T10:41:14.434Z,16.23
2018-12-20T10:43:43.302Z,17.35
2018-12-20T10:46:12.140Z,16.97
2018-12-20T10:48:41.012Z,16.70
2018-12-20T10:51:11.748Z,17.20
2018-12-20T10:53:44.976Z,15.90
2018-12-20T10:56:13.785Z,15.40
2018-12-20T10:58:44.521Z,13.10
2018-12-20T11:01:19.648Z,13.38
2018-12-20T11:04:08.005Z,14.70
2018-12-20T11:06:47.259Z,14.55
2018-12-20T11:09:22.552Z,14.50
2018-12-20T11:12:08.886Z,13.88
2018-12-20T11:14:57.835Z,12.25
2018-12-20T11:17:37.349Z,12.53
2018-12-20T11:20:05.343Z,12.25
2018-12-20T11:22:34.222Z,11.50
2018-12-20T11:25:07.740Z,13.22
2018-12-20T11:27:54.576Z,13.03
2018-12-20T11:30:26.876Z,12.90
2018-12-20T11:33:01.448Z,12.20
2018-12-20T11:35:32.180Z,13.62
2018-12-20T11:38:02.000Z,11.70
2018-12-20T11:40:31.808Z,11.73
2018-12-20T11:46:11.888Z,11.38
2018-12-20T11:48:40.692Z,12.23
2018-12-20T11:51:12.528Z,12.50
2018-12-20T11:54:04.491Z,12.13
2018-12-20T11:56:50.560Z,12.45
2018-12-20T11:59:22.601Z,13.05
2018-12-20T12:01:51.696Z,11.53
2018-12-20T12:04:20.665Z,11.68
2018-12-20T12:06:50.361Z,12.10
2018-12-20T12:09:26.408Z,12.63
2018-12-20T12:11:56.285Z,12.13
2018-12-20T12:14:31.688Z,11.95
2018-12-20T12:17:11.319Z,10.85
2018-12-20T12:19:40.172Z,10.40
2018-12-20T12:22:09.032Z,10.23
2018-12-20T12:24:42.596Z,11.20
2018-12-20T12:27:16.452Z,10.58
2018-12-20T12:29:54.908Z,10.38
2018-12-20T12:32:24.652Z,11.70
2018-12-20T12:34:54.503Z,12.25
2018-12-20T12:37:30.095Z,10.85
2018-12-20T12:39:59.884Z,10.18
2018-12-20T12:42:28.669Z,11.80
2018-12-20T12:45:02.659Z,10.50
2018-12-20T12:47:40.656Z,11.10
2018-12-20T12:50:19.508Z,10.48
2018-12-20T12:53:01.087Z,10.10
2018-12-20T12:55:30.776Z,8.98
2018-12-20T12:58:04.569Z,8.53
2018-12-20T13:00:34.716Z,10.32
2018-12-20T13:03:10.197Z,10.38
2018-12-20T13:05:50.636Z,11.03
2018-12-20T13:08:25.800Z,10.63
2018-12-20T13:10:58.385Z,10.78
2018-12-20T13:13:37.396Z,12.15
2018-12-20T13:16:10.424Z,11.50
2018-12-20T13:18:51.666Z,12.50
2018-12-20T13:21:20.520Z,12.40
2018-12-20T13:23:55.277Z,11.93
2018-12-20T13:26:36.040Z,12.28
2018-12-20T13:29:10.080Z,12.70
2018-12-20T13:31:40.040Z,13.03
2018-12-20T13:34:12.373Z,12.47
2018-12-20T13:36:47.848Z,11.97
2018-12-20T13:39:16.676Z,12.40
2018-12-20T13:41:51.196Z,12.80
2018-12-20T13:44:26.825Z,13.15
2018-12-20T13:47:20.265Z,12.98
2018-12-20T13:49:53.799Z,13.13
2018-12-20T13:52:26.448Z,12.43
2018-12-20T13:55:09.418Z,11.33
2018-12-20T13:57:39.264Z,11.70
2018-12-20T14:00:11.704Z,10.78
2018-12-20T14:02:44.104Z,12.10
2018-12-20T14:05:12.928Z,13.83
2018-12-20T14:07:41.792Z,17.10
2018-12-20T14:10:10.732Z,16.93
2018-12-20T14:12:39.561Z,17.55
2018-12-20T14:15:08.612Z,18.87
2018-12-20T14:17:37.508Z,19.60
2018-12-20T14:20:17.564Z,15.98
2018-12-20T14:22:49.740Z,17.35
2018-12-20T14:25:42.932Z,14.85
2018-12-20T14:28:15.068Z,13.85
2018-12-20T14:30:56.750Z,13.08
2018-12-20T14:33:37.721Z,11.85
2018-12-20T14:36:09.869Z,11.40
2018-12-20T14:38:48.713Z,12.05
2018-12-20T14:41:29.448Z,13.05
2018-12-20T14:44:19.064Z,11.12
2018-12-20T14:47:05.382Z,12.18
2018-12-20T14:49:47.664Z,11.60
2018-12-20T14:52:39.736Z,11.00
2018-12-20T14:55:16.292Z,12.10
2018-12-20T14:57:58.944Z,9.75
2018-12-20T15:00:44.474Z,10.50
2018-12-20T15:03:28.600Z,10.32
2018-12-20T15:06:12.424Z,9.40
2018-12-20T15:08:51.772Z,8.93
2018-12-20T15:11:39.942Z,8.88
2018-12-20T15:14:13.676Z,8.73
2018-12-20T15:16:46.252Z,7.87
2018-12-20T15:19:19.508Z,8.85
2018-12-20T15:22:08.691Z,8.50
2018-12-20T15:27:51.076Z,9.00
2018-12-20T15:30:26.992Z,7.95
2018-12-20T15:33:06.756Z,8.03
2018-12-20T15:35:42.652Z,8.73
2018-12-20T15:38:19.232Z,7.65
2018-12-20T15:41:02.124Z,7.72
2018-12-20T15:43:33.100Z,8.50
2018-12-20T15:46:05.789Z,8.58
2018-12-20T15:48:43.092Z,7.92
2018-12-20T15:51:23.872Z,8.25
2018-12-20T15:54:00.429Z,7.37
2018-12-20T15:56:35.391Z,7.55
2018-12-20T15:59:10.072Z,7.40
2018-12-20T16:01:38.892Z,7.53
2018-12-20T16:04:09.676Z,6.67
2018-12-20T16:06:47.428Z,6.70
2018-12-20T16:09:22.087Z,7.60
2018-12-20T16:11:50.920Z,6.22
2018-12-20T16:14:20.932Z,8.05
2018-12-20T16:17:08.724Z,7.53
2018-12-20T16:19:55.676Z,8.05
2018-12-20T16:22:29.848Z,6.60
2018-12-20T16:25:09.499Z,6.70
2018-12-20T16:27:47.191Z,6.92
2018-12-20T16:30:31.240Z,6.97
2018-12-20T16:33:10.356Z,7.92
2018-12-20T16:35:44.825Z,7.85
2018-12-20T16:38:14.600Z,7.33
2018-12-20T16:40:45.328Z,9.18
2018-12-20T16:43:26.820Z,6.80
2018-12-20T16:45:55.732Z,7.50
2018-12-20T16:48:24.676Z,6.78
2018-12-20T16:50:54.381Z,7.47
2018-12-20T16:53:24.204Z,7.90
2018-12-20T16:56:11.227Z,8.25
2018-12-20T16:58:42.113Z,7.55
2018-12-20T17:01:10.913Z,6.90
2018-12-20T17:03:40.668Z,7.50
2018-12-20T17:06:09.484Z,8.08
2018-12-20T17:08:47.799Z,9.40
2018-12-20T17:11:13.528Z,7.72
2018-12-20T17:13:43.272Z,9.48
2018-12-20T17:19:22.282Z,7.67
2018-12-20T17:21:57.904Z,8.73
2018-12-20T17:24:26.703Z,7.12
2018-12-20T17:27:00.721Z,9.08
2018-12-20T17:29:31.571Z,8.63
2018-12-20T17:32:08.861Z,9.65
2018-12-20T17:34:43.712Z,8.75
2018-12-20T17:37:24.368Z,8.15
2018-12-20T17:39:54.124Z,8.70
2018-12-20T17:42:29.544Z,8.20
2018-12-20T17:44:59.249Z,7.15
2018-12-20T17:47:33.192Z,6.33
2018-12-20T17:50:09.504Z,7.97
2018-12-20T17:52:50.068Z,7.75
2018-12-20T17:55:18.880Z,8.30
2018-12-20T17:57:48.683Z,7.95
2018-12-20T18:00:37.580Z,8.40
2018-12-20T18:03:07.384Z,8.93
2018-12-20T18:05:36.180Z,9.93
2018-12-20T18:08:24.080Z,9.28
2018-12-20T18:11:00.964Z,10.80
2018-12-20T18:13:33.941Z,10.70
2018-12-20T18:16:04.700Z,9.90
2018-12-20T18:18:40.328Z,9.60
2018-12-20T18:21:09.125Z,8.18
2018-12-20T18:23:48.420Z,8.38
2018-12-20T18:26:24.373Z,8.00
2018-12-20T18:28:54.053Z,7.17
2018-12-20T18:31:26.312Z,7.50
2018-12-20T18:34:02.548Z,6.90
2018-12-20T18:36:35.476Z,8.03
2018-12-20T18:39:08.412Z,6.67
2018-12-20T18:41:39.140Z,5.95
2018-12-20T18:44:08.860Z,6.58
2018-12-20T18:46:37.676Z,10.00
2018-12-20T18:49:10.084Z,8.08
2018-12-20T18:51:38.976Z,5.97
2018-12-20T18:54:08.740Z,6.15
2018-12-20T18:56:39.452Z,5.53
2018-12-20T18:59:09.149Z,5.45
2018-12-20T19:01:38.877Z,5.58
2018-12-20T19:04:07.704Z,4.40
2018-12-20T19:06:41.909Z,4.80
2018-12-20T19:09:12.702Z,5.00
2018-12-20T19:11:43.528Z,6.30
2018-12-20T19:14:13.224Z,4.75
2018-12-20T19:16:51.581Z,10.45
2018-12-20T19:19:20.468Z,5.17
2018-12-20T19:21:49.352Z,4.22
2018-12-20T19:24:46.508Z,5.28
2018-12-20T19:27:15.300Z,5.33
2018-12-20T19:30:00.592Z,5.28
2018-12-20T19:32:41.533Z,4.45
2018-12-20T19:35:27.069Z,4.83
2018-12-20T19:37:59.344Z,4.67
2018-12-20T19:40:32.002Z,4.83
2018-12-20T19:43:04.500Z,4.85
2018-12-20T19:45:48.652Z,5.28
2018-12-20T19:48:32.129Z,4.92
2018-12-20T19:51:07.430Z,4.87
2018-12-20T19:53:48.469Z,5.15
2018-12-20T19:56:22.941Z,5.17
2018-12-20T19:58:57.729Z,5.70
2018-12-20T20:01:26.667Z,5.30
2018-12-20T20:03:56.485Z,5.70
2018-12-20T20:06:30.597Z,5.30
2018-12-20T20:09:07.053Z,5.33
2018-12-20T20:11:36.889Z,5.72
2018-12-20T20:14:07.650Z,4.80
2018-12-20T20:16:39.749Z,5.62
2018-12-20T20:19:08.650Z,5.28
2018-12-20T20:21:37.478Z,5.20
2018-12-20T20:24:12.249Z,4.78
2018-12-20T20:26:41.058Z,4.60
2018-12-20T20:29:14.959Z,5.05
2018-12-20T20:32:01.919Z,4.72
2018-12-20T20:34:33.525Z,5.17
2018-12-20T20:37:09.750Z,5.10
2018-12-20T20:39:44.257Z,4.80
2018-12-20T20:42:20.386Z,4.40
2018-12-20T20:44:52.478Z,5.33
2018-12-20T20:47:21.558Z,4.87
2018-12-20T20:49:50.326Z,4.50
2018-12-20T20:52:24.738Z,4.42
2018-12-20T20:55:06.967Z,4.83
2018-12-20T20:57:37.714Z,5.10
2018-12-20T21:00:16.698Z,4.60
2018-12-20T21:02:57.378Z,4.80
2018-12-20T21:05:29.538Z,5.03
2018-12-20T21:08:04.282Z,5.08
2018-12-20T21:10:40.570Z,4.80
2018-12-20T21:13:09.378Z,5.20
2018-12-20T21:15:38.266Z,4.35
2018-12-20T21:18:09.098Z,4.95
2018-12-20T21:20:37.918Z,3.83
2018-12-20T21:23:09.470Z,4.87
2018-12-20T21:25:40.254Z,4.72
2018-12-20T21:28:14.862Z,5.12
2018-12-20T21:30:45.562Z,5.20
2018-12-20T21:33:16.334Z,4.75
2018-12-20T21:35:46.123Z,4.85
2018-12-20T21:38:18.709Z,4.80
2018-12-20T21:40:51.274Z,5.12
2018-12-20T21:43:21.116Z,4.00
2018-12-20T21:46:02.394Z,4.90
2018-12-20T21:48:31.243Z,4.40
2018-12-20T21:51:03.046Z,6.35
2018-12-20T21:53:31.842Z,4.15
2018-12-20T21:56:03.442Z,4.85
2018-12-20T21:58:32.346Z,5.05
2018-12-20T22:01:08.498Z,5.08
2018-12-20T22:03:42.398Z,5.37
2018-12-20T22:06:15.226Z,5.00
2018-12-20T22:08:49.826Z,4.15
2018-12-20T22:11:19.691Z,4.40
2018-12-20T22:13:51.046Z,4.67
2018-12-20T22:16:27.134Z,3.65
2018-12-20T22:18:57.966Z,3.92
2018-12-20T22:21:36.822Z,4.33
2018-12-20T22:24:07.558Z,3.70
2018-12-20T22:26:47.718Z,4.95
2018-12-20T22:29:17.478Z,4.28
2018-12-20T22:31:48.358Z,3.92
2018-12-20T22:34:17.143Z,3.80
2018-12-20T22:36:45.926Z,3.58
2018-12-20T22:39:15.707Z,4.05
2018-12-20T22:41:48.205Z,4.17
2018-12-20T22:44:22.814Z,4.10
2018-12-20T22:46:52.678Z,3.10
2018-12-20T22:49:27.854Z,3.60
2018-12-20T22:51:57.578Z,4.30
2018-12-20T22:54:34.466Z,6.00
2018-12-20T22:57:08.826Z,3.85
2018-12-20T22:59:57.975Z,5.03
2018-12-20T23:02:30.846Z,4.90
2018-12-20T23:04:59.642Z,3.47
2018-12-20T23:07:40.926Z,4.50
2018-12-20T23:10:11.766Z,3.65
2018-12-20T23:12:40.596Z,4.22
2018-12-20T23:15:09.491Z,4.22
2018-12-20T23:17:47.202Z,4.20
2018-12-20T23:20:18.018Z,5.22
2018-12-20T23:22:47.694Z,5.15
2018-12-20T23:25:16.514Z,5.95
2018-12-20T23:27:46.229Z,4.72
2018-12-20T23:30:16.950Z,5.70
2018-12-20T23:32:46.773Z,5.05
2018-12-20T23:41:22.691Z,6.10
2018-12-20T23:43:51.482Z,5.70
2018-12-20T23:46:35.966Z,6.53
2018-12-20T23:49:04.782Z,6.50
2018-12-20T23:51:33.611Z,5.85
2018-12-20T23:54:07.462Z,5.47
2018-12-20T23:56:46.051Z,6.67
2018-12-20T23:59:24.898Z,6.20
